sensor_id;sensor_type;location;lat;lon;timestamp;P1;durP1;ratioP1;P2;durP2;ratioP2
67274;SDS011;55463;52.324;5.122;2023-05-01T00:02:17;5.18;;;2.55;;
67274;SDS011;55463;52.324;5.122;2023-05-01T00:04:43;5.10;;;2.80;;
67274;SDS011;55463;52.324;5.122;2023-05-01T00:07:08;6.75;;;2.70;;
67274;SDS011;55463;52.324;5.122;2023-05-01T00:09:33;5.20;;;2.70;;
67274;SDS011;55463;52.324;5.122;2023-05-01T00:11:59;8.30;;;2.60;;
67274;SDS011;55463;52.324;5.122;2023-05-01T00:14:27;9.20;;;3.38;;
67274;SDS011;55463;52.324;5.122;2023-05-01T00:16:52;4.88;;;3.00;;
67274;SDS011;55463;52.324;5.122;2023-05-01T00:19:18;5.35;;;3.00;;
67274;SDS011;55463;52.324;5.122;2023-05-01T00:21:46;7.95;;;2.50;;
67274;SDS011;55463;52.324;5.122;2023-05-01T00:24:13;5.97;;;2.83;;
67274;SDS011;55463;52.324;5.122;2023-05-01T00:26:39;6.20;;;2.67;;
67274;SDS011;55463;52.324;5.122;2023-05-01T00:29:04;2.92;;;2.67;;
67274;SDS011;55463;52.324;5.122;2023-05-01T00:31:30;7.35;;;2.90;;
67274;SDS011;55463;52.324;5.122;2023-05-01T00:33:55;5.13;;;2.58;;
67274;SDS011;55463;52.324;5.122;2023-05-01T00:36:21;11.35;;;3.20;;
67274;SDS011;55463;52.324;5.122;2023-05-01T00:38:46;6.72;;;2.90;;
67274;SDS011;55463;52.324;5.122;2023-05-01T00:41:12;5.57;;;2.63;;
67274;SDS011;55463;52.324;5.122;2023-05-01T00:43:37;6.88;;;3.00;;
67274;SDS011;55463;52.324;5.122;2023-05-01T00:46:03;3.88;;;2.80;;
67274;SDS011;55463;52.324;5.122;2023-05-01T00:48:28;8.07;;;2.88;;
67274;SDS011;55463;52.324;5.122;2023-05-01T00:50:55;8.60;;;3.30;;
67274;SDS011;55463;52.324;5.122;2023-05-01T00:53:21;9.00;;;3.10;;
67274;SDS011;55463;52.324;5.122;2023-05-01T00:55:48;4.85;;;2.95;;
67274;SDS011;55463;52.324;5.122;2023-05-01T00:58:15;7.25;;;2.92;;
67274;SDS011;55463;52.324;5.122;2023-05-01T01:00:41;8.75;;;3.08;;
67274;SDS011;55463;52.324;5.122;2023-05-01T01:03:07;5.30;;;3.00;;
67274;SDS011;55463;52.324;5.122;2023-05-01T01:05:33;7.95;;;2.92;;
67274;SDS011;55463;52.324;5.122;2023-05-01T01:08:09;8.93;;;3.55;;
67274;SDS011;55463;52.324;5.122;2023-05-01T01:10:54;5.95;;;3.22;;
67274;SDS011;55463;52.324;5.122;2023-05-01T01:13:38;7.47;;;3.35;;
67274;SDS011;55463;52.324;5.122;2023-05-01T01:16:26;8.00;;;3.53;;
67274;SDS011;55463;52.324;5.122;2023-05-01T01:21:39;7.32;;;3.17;;
67274;SDS011;55463;52.324;5.122;2023-05-01T01:24:28;6.15;;;3.40;;
67274;SDS011;55463;52.324;5.122;2023-05-01T01:35:38;6.72;;;3.00;;
67274;SDS011;55463;52.324;5.122;2023-05-01T01:38:18;8.45;;;3.20;;
67274;SDS011;55463;52.324;5.122;2023-05-01T01:40:58;10.20;;;3.40;;
67274;SDS011;55463;52.324;5.122;2023-05-01T01:43:31;7.93;;;3.28;;
67274;SDS011;55463;52.324;5.122;2023-05-01T01:46:02;10.98;;;3.63;;
67274;SDS011;55463;52.324;5.122;2023-05-01T01:48:31;8.40;;;3.15;;
67274;SDS011;55463;52.324;5.122;2023-05-01T01:51:00;7.82;;;3.05;;
67274;SDS011;55463;52.324;5.122;2023-05-01T01:53:30;8.48;;;3.22;;
67274;SDS011;55463;52.324;5.122;2023-05-01T01:55:59;7.38;;;3.28;;
67274;SDS011;55463;52.324;5.122;2023-05-01T01:58:28;7.40;;;3.00;;
67274;SDS011;55463;52.324;5.122;2023-05-01T02:00:55;5.45;;;3.03;;
67274;SDS011;55463;52.324;5.122;2023-05-01T02:03:23;6.15;;;3.38;;
67274;SDS011;55463;52.324;5.122;2023-05-01T02:05:50;5.15;;;3.20;;
67274;SDS011;55463;52.324;5.122;2023-05-01T02:08:18;9.80;;;3.30;;
67274;SDS011;55463;52.324;5.122;2023-05-01T02:10:45;9.13;;;3.90;;
67274;SDS011;55463;52.324;5.122;2023-05-01T02:13:12;4.13;;;3.10;;
67274;SDS011;55463;52.324;5.122;2023-05-01T02:15:38;10.75;;;3.17;;
67274;SDS011;55463;52.324;5.122;2023-05-01T02:18:04;8.93;;;3.20;;
67274;SDS011;55463;52.324;5.122;2023-05-01T02:20:31;6.63;;;3.30;;
67274;SDS011;55463;52.324;5.122;2023-05-01T02:22:57;5.07;;;3.20;;
67274;SDS011;55463;52.324;5.122;2023-05-01T02:25:23;6.93;;;3.13;;
67274;SDS011;55463;52.324;5.122;2023-05-01T02:27:58;6.05;;;2.90;;
67274;SDS011;55463;52.324;5.122;2023-05-01T02:30:25;8.13;;;3.17;;
67274;SDS011;55463;52.324;5.122;2023-05-01T02:32:51;8.63;;;3.47;;
67274;SDS011;55463;52.324;5.122;2023-05-01T02:35:17;5.05;;;3.10;;
67274;SDS011;55463;52.324;5.122;2023-05-01T02:37:43;4.45;;;3.17;;
67274;SDS011;55463;52.324;5.122;2023-05-01T02:40:10;9.18;;;3.08;;
67274;SDS011;55463;52.324;5.122;2023-05-01T02:42:38;6.35;;;3.35;;
67274;SDS011;55463;52.324;5.122;2023-05-01T02:45:09;5.88;;;3.00;;
67274;SDS011;55463;52.324;5.122;2023-05-01T02:50:06;3.70;;;2.95;;
67274;SDS011;55463;52.324;5.122;2023-05-01T02:52:33;8.38;;;3.40;;
67274;SDS011;55463;52.324;5.122;2023-05-01T02:54:59;8.40;;;3.53;;
67274;SDS011;55463;52.324;5.122;2023-05-01T02:57:25;5.93;;;3.50;;
67274;SDS011;55463;52.324;5.122;2023-05-01T02:59:50;6.57;;;3.35;;
67274;SDS011;55463;52.324;5.122;2023-05-01T03:02:15;5.60;;;3.47;;
67274;SDS011;55463;52.324;5.122;2023-05-01T03:04:41;9.98;;;3.55;;
67274;SDS011;55463;52.324;5.122;2023-05-01T03:07:07;9.23;;;3.63;;
67274;SDS011;55463;52.324;5.122;2023-05-01T03:09:33;7.82;;;3.67;;
67274;SDS011;55463;52.324;5.122;2023-05-01T03:11:58;7.68;;;3.60;;
67274;SDS011;55463;52.324;5.122;2023-05-01T03:14:25;9.68;;;3.70;;
67274;SDS011;55463;52.324;5.122;2023-05-01T03:16:52;13.57;;;3.60;;
67274;SDS011;55463;52.324;5.122;2023-05-01T03:19:18;8.65;;;3.08;;
67274;SDS011;55463;52.324;5.122;2023-05-01T03:21:43;5.78;;;3.33;;
67274;SDS011;55463;52.324;5.122;2023-05-01T03:24:08;8.23;;;3.00;;
67274;SDS011;55463;52.324;5.122;2023-05-01T03:26:34;7.30;;;2.97;;
67274;SDS011;55463;52.324;5.122;2023-05-01T03:28:59;7.93;;;3.20;;
67274;SDS011;55463;52.324;5.122;2023-05-01T03:31:24;10.90;;;3.35;;
67274;SDS011;55463;52.324;5.122;2023-05-01T03:33:50;6.75;;;3.50;;
67274;SDS011;55463;52.324;5.122;2023-05-01T03:36:15;6.53;;;3.03;;
67274;SDS011;55463;52.324;5.122;2023-05-01T03:38:41;6.72;;;3.60;;
67274;SDS011;55463;52.324;5.122;2023-05-01T03:41:06;10.75;;;3.40;;
67274;SDS011;55463;52.324;5.122;2023-05-01T03:43:32;6.30;;;3.78;;
67274;SDS011;55463;52.324;5.122;2023-05-01T03:45:57;6.32;;;3.55;;
67274;SDS011;55463;52.324;5.122;2023-05-01T03:48:23;5.80;;;3.25;;
67274;SDS011;55463;52.324;5.122;2023-05-01T03:50:49;12.00;;;3.97;;
67274;SDS011;55463;52.324;5.122;2023-05-01T03:53:15;6.43;;;3.05;;
67274;SDS011;55463;52.324;5.122;2023-05-01T03:55:40;6.65;;;3.40;;
67274;SDS011;55463;52.324;5.122;2023-05-01T03:58:06;6.22;;;3.40;;
67274;SDS011;55463;52.324;5.122;2023-05-01T04:00:32;3.72;;;2.50;;
67274;SDS011;55463;52.324;5.122;2023-05-01T04:02:57;6.30;;;3.00;;
67274;SDS011;55463;52.324;5.122;2023-05-01T04:05:23;6.00;;;3.03;;
67274;SDS011;55463;52.324;5.122;2023-05-01T04:07:49;5.40;;;2.75;;
67274;SDS011;55463;52.324;5.122;2023-05-01T04:10:14;6.70;;;2.90;;
67274;SDS011;55463;52.324;5.122;2023-05-01T04:12:41;10.23;;;2.95;;
67274;SDS011;55463;52.324;5.122;2023-05-01T04:15:06;7.10;;;2.88;;
67274;SDS011;55463;52.324;5.122;2023-05-01T04:17:32;5.32;;;2.92;;
67274;SDS011;55463;52.324;5.122;2023-05-01T04:19:59;6.82;;;3.03;;
67274;SDS011;55463;52.324;5.122;2023-05-01T04:22:25;4.32;;;3.03;;
67274;SDS011;55463;52.324;5.122;2023-05-01T04:24:50;6.40;;;3.20;;
67274;SDS011;55463;52.324;5.122;2023-05-01T04:27:16;5.88;;;3.00;;
67274;SDS011;55463;52.324;5.122;2023-05-01T04:29:43;6.88;;;3.00;;
67274;SDS011;55463;52.324;5.122;2023-05-01T04:32:09;6.68;;;3.15;;
67274;SDS011;55463;52.324;5.122;2023-05-01T04:34:34;4.32;;;2.70;;
67274;SDS011;55463;52.324;5.122;2023-05-01T04:37:00;8.02;;;3.42;;
67274;SDS011;55463;52.324;5.122;2023-05-01T04:39:27;5.93;;;3.45;;
67274;SDS011;55463;52.324;5.122;2023-05-01T04:41:52;9.77;;;4.03;;
67274;SDS011;55463;52.324;5.122;2023-05-01T04:44:17;7.82;;;3.70;;
67274;SDS011;55463;52.324;5.122;2023-05-01T04:46:43;7.35;;;3.45;;
67274;SDS011;55463;52.324;5.122;2023-05-01T04:49:08;9.93;;;3.97;;
67274;SDS011;55463;52.324;5.122;2023-05-01T04:51:33;6.18;;;3.40;;
67274;SDS011;55463;52.324;5.122;2023-05-01T04:53:59;8.20;;;4.05;;
67274;SDS011;55463;52.324;5.122;2023-05-01T04:56:24;9.18;;;3.58;;
67274;SDS011;55463;52.324;5.122;2023-05-01T04:58:50;11.73;;;4.90;;
67274;SDS011;55463;52.324;5.122;2023-05-01T05:01:16;9.00;;;4.15;;
67274;SDS011;55463;52.324;5.122;2023-05-01T05:03:41;8.77;;;4.05;;
67274;SDS011;55463;52.324;5.122;2023-05-01T05:06:06;14.05;;;4.18;;
67274;SDS011;55463;52.324;5.122;2023-05-01T05:08:32;9.35;;;4.25;;
67274;SDS011;55463;52.324;5.122;2023-05-01T05:10:57;9.32;;;4.22;;
67274;SDS011;55463;52.324;5.122;2023-05-01T05:13:26;11.50;;;4.40;;
67274;SDS011;55463;52.324;5.122;2023-05-01T05:15:52;11.85;;;4.50;;
67274;SDS011;55463;52.324;5.122;2023-05-01T05:18:17;7.60;;;4.00;;
67274;SDS011;55463;52.324;5.122;2023-05-01T05:20:43;8.52;;;4.20;;
67274;SDS011;55463;52.324;5.122;2023-05-01T05:23:08;13.52;;;4.15;;
67274;SDS011;55463;52.324;5.122;2023-05-01T05:25:34;12.07;;;4.53;;
67274;SDS011;55463;52.324;5.122;2023-05-01T05:28:00;10.70;;;4.50;;
67274;SDS011;55463;52.324;5.122;2023-05-01T05:30:25;10.32;;;4.30;;
67274;SDS011;55463;52.324;5.122;2023-05-01T05:32:51;20.40;;;4.85;;
67274;SDS011;55463;52.324;5.122;2023-05-01T05:35:17;15.05;;;4.78;;
67274;SDS011;55463;52.324;5.122;2023-05-01T05:37:42;16.98;;;4.80;;
67274;SDS011;55463;52.324;5.122;2023-05-01T05:40:08;12.45;;;4.45;;
67274;SDS011;55463;52.324;5.122;2023-05-01T05:42:34;9.55;;;4.20;;
67274;SDS011;55463;52.324;5.122;2023-05-01T05:44:59;10.57;;;4.53;;
67274;SDS011;55463;52.324;5.122;2023-05-01T05:47:25;9.15;;;4.32;;
67274;SDS011;55463;52.324;5.122;2023-05-01T05:49:50;16.70;;;4.57;;
67274;SDS011;55463;52.324;5.122;2023-05-01T05:52:15;22.65;;;4.72;;
67274;SDS011;55463;52.324;5.122;2023-05-01T05:54:41;20.42;;;4.72;;
67274;SDS011;55463;52.324;5.122;2023-05-01T05:57:07;17.70;;;4.93;;
67274;SDS011;55463;52.324;5.122;2023-05-01T05:59:32;23.30;;;4.47;;
67274;SDS011;55463;52.324;5.122;2023-05-01T06:01:57;16.92;;;5.18;;
67274;SDS011;55463;52.324;5.122;2023-05-01T06:04:23;17.35;;;4.45;;
67274;SDS011;55463;52.324;5.122;2023-05-01T06:06:48;20.00;;;4.60;;
67274;SDS011;55463;52.324;5.122;2023-05-01T06:09:14;16.33;;;5.80;;
67274;SDS011;55463;52.324;5.122;2023-05-01T06:11:40;14.50;;;4.22;;
67274;SDS011;55463;52.324;5.122;2023-05-01T06:14:05;28.98;;;5.15;;
67274;SDS011;55463;52.324;5.122;2023-05-01T06:16:31;20.33;;;4.70;;
67274;SDS011;55463;52.324;5.122;2023-05-01T06:18:58;18.35;;;5.50;;
67274;SDS011;55463;52.324;5.122;2023-05-01T06:21:23;20.02;;;4.90;;
67274;SDS011;55463;52.324;5.122;2023-05-01T06:23:49;8.60;;;4.13;;
67274;SDS011;55463;52.324;5.122;2023-05-01T06:26:14;7.47;;;3.97;;
67274;SDS011;55463;52.324;5.122;2023-05-01T06:28:39;27.40;;;5.20;;
67274;SDS011;55463;52.324;5.122;2023-05-01T06:31:05;25.80;;;4.50;;
67274;SDS011;55463;52.324;5.122;2023-05-01T06:33:31;19.58;;;4.50;;
67274;SDS011;55463;52.324;5.122;2023-05-01T06:35:56;14.18;;;4.40;;
67274;SDS011;55463;52.324;5.122;2023-05-01T06:38:24;11.52;;;4.55;;
67274;SDS011;55463;52.324;5.122;2023-05-01T06:40:50;16.02;;;7.07;;
67274;SDS011;55463;52.324;5.122;2023-05-01T06:43:15;8.25;;;4.65;;
67274;SDS011;55463;52.324;5.122;2023-05-01T06:45:40;9.38;;;4.78;;
67274;SDS011;55463;52.324;5.122;2023-05-01T06:48:06;12.07;;;4.97;;
67274;SDS011;55463;52.324;5.122;2023-05-01T06:50:32;16.00;;;4.32;;
67274;SDS011;55463;52.324;5.122;2023-05-01T06:52:57;15.68;;;4.53;;
67274;SDS011;55463;52.324;5.122;2023-05-01T06:55:24;15.18;;;4.47;;
67274;SDS011;55463;52.324;5.122;2023-05-01T06:57:50;9.68;;;4.20;;
67274;SDS011;55463;52.324;5.122;2023-05-01T07:00:16;13.93;;;4.53;;
67274;SDS011;55463;52.324;5.122;2023-05-01T07:02:43;11.82;;;4.70;;
67274;SDS011;55463;52.324;5.122;2023-05-01T07:05:09;11.00;;;4.30;;
67274;SDS011;55463;52.324;5.122;2023-05-01T07:07:34;18.77;;;5.03;;
67274;SDS011;55463;52.324;5.122;2023-05-01T07:10:00;11.32;;;4.47;;
67274;SDS011;55463;52.324;5.122;2023-05-01T07:12:26;12.73;;;4.60;;
67274;SDS011;55463;52.324;5.122;2023-05-01T07:14:53;11.77;;;4.43;;
67274;SDS011;55463;52.324;5.122;2023-05-01T07:17:20;13.90;;;4.03;;
67274;SDS011;55463;52.324;5.122;2023-05-01T07:19:46;10.38;;;4.07;;
67274;SDS011;55463;52.324;5.122;2023-05-01T07:22:11;8.55;;;4.25;;
67274;SDS011;55463;52.324;5.122;2023-05-01T07:24:36;9.52;;;4.22;;
67274;SDS011;55463;52.324;5.122;2023-05-01T07:27:02;10.07;;;4.40;;
67274;SDS011;55463;52.324;5.122;2023-05-01T07:29:27;10.93;;;4.57;;
67274;SDS011;55463;52.324;5.122;2023-05-01T07:31:53;14.35;;;4.65;;
67274;SDS011;55463;52.324;5.122;2023-05-01T07:34:19;8.10;;;4.65;;
67274;SDS011;55463;52.324;5.122;2023-05-01T07:36:44;11.73;;;4.55;;
67274;SDS011;55463;52.324;5.122;2023-05-01T07:39:10;11.73;;;4.30;;
67274;SDS011;55463;52.324;5.122;2023-05-01T07:41:35;9.25;;;4.28;;
67274;SDS011;55463;52.324;5.122;2023-05-01T07:44:01;12.00;;;4.70;;
67274;SDS011;55463;52.324;5.122;2023-05-01T07:46:26;7.85;;;4.50;;
67274;SDS011;55463;52.324;5.122;2023-05-01T07:48:52;7.88;;;4.05;;
67274;SDS011;55463;52.324;5.122;2023-05-01T07:51:17;13.30;;;4.60;;
67274;SDS011;55463;52.324;5.122;2023-05-01T07:53:49;11.55;;;4.30;;
67274;SDS011;55463;52.324;5.122;2023-05-01T07:56:14;8.38;;;4.50;;
67274;SDS011;55463;52.324;5.122;2023-05-01T07:58:40;14.43;;;4.80;;
67274;SDS011;55463;52.324;5.122;2023-05-01T08:01:06;12.52;;;4.63;;
67274;SDS011;55463;52.324;5.122;2023-05-01T08:03:31;12.18;;;4.22;;
67274;SDS011;55463;52.324;5.122;2023-05-01T08:06:12;9.32;;;4.10;;
67274;SDS011;55463;52.324;5.122;2023-05-01T08:11:10;13.93;;;4.22;;
67274;SDS011;55463;52.324;5.122;2023-05-01T08:13:35;12.98;;;4.25;;
67274;SDS011;55463;52.324;5.122;2023-05-01T08:16:01;18.02;;;3.85;;
67274;SDS011;55463;52.324;5.122;2023-05-01T08:18:36;15.68;;;4.35;;
67274;SDS011;55463;52.324;5.122;2023-05-01T08:21:02;9.63;;;4.57;;
67274;SDS011;55463;52.324;5.122;2023-05-01T08:23:30;7.10;;;3.80;;
67274;SDS011;55463;52.324;5.122;2023-05-01T08:25:56;8.88;;;4.03;;
67274;SDS011;55463;52.324;5.122;2023-05-01T08:28:22;11.70;;;3.50;;
67274;SDS011;55463;52.324;5.122;2023-05-01T08:30:58;10.32;;;3.97;;
67274;SDS011;55463;52.324;5.122;2023-05-01T08:33:23;11.10;;;3.80;;
67274;SDS011;55463;52.324;5.122;2023-05-01T08:35:49;10.90;;;3.92;;
67274;SDS011;55463;52.324;5.122;2023-05-01T08:38:17;11.18;;;3.70;;
67274;SDS011;55463;52.324;5.122;2023-05-01T08:40:45;8.27;;;3.53;;
67274;SDS011;55463;52.324;5.122;2023-05-01T08:43:22;10.88;;;3.63;;
67274;SDS011;55463;52.324;5.122;2023-05-01T08:45:49;8.98;;;3.40;;
67274;SDS011;55463;52.324;5.122;2023-05-01T08:48:15;12.00;;;3.88;;
67274;SDS011;55463;52.324;5.122;2023-05-01T08:50:45;8.73;;;3.50;;
67274;SDS011;55463;52.324;5.122;2023-05-01T08:53:12;9.85;;;4.22;;
67274;SDS011;55463;52.324;5.122;2023-05-01T08:55:46;9.93;;;3.90;;
67274;SDS011;55463;52.324;5.122;2023-05-01T08:58:12;8.98;;;4.50;;
67274;SDS011;55463;52.324;5.122;2023-05-01T09:00:38;11.05;;;3.90;;
67274;SDS011;55463;52.324;5.122;2023-05-01T09:03:06;8.05;;;4.13;;
67274;SDS011;55463;52.324;5.122;2023-05-01T09:05:35;13.30;;;4.45;;
67274;SDS011;55463;52.324;5.122;2023-05-01T09:08:09;8.63;;;4.00;;
67274;SDS011;55463;52.324;5.122;2023-05-01T09:10:38;11.23;;;4.85;;
67274;SDS011;55463;52.324;5.122;2023-05-01T09:13:08;10.85;;;4.72;;
67274;SDS011;55463;52.324;5.122;2023-05-01T09:15:33;9.15;;;4.72;;
67274;SDS011;55463;52.324;5.122;2023-05-01T09:17:59;9.95;;;4.53;;
67274;SDS011;55463;52.324;5.122;2023-05-01T09:20:31;10.52;;;4.85;;
67274;SDS011;55463;52.324;5.122;2023-05-01T09:23:01;9.25;;;5.68;;
67274;SDS011;55463;52.324;5.122;2023-05-01T09:25:26;11.20;;;4.88;;
67274;SDS011;55463;52.324;5.122;2023-05-01T09:27:52;11.43;;;5.22;;
67274;SDS011;55463;52.324;5.122;2023-05-01T09:33:13;7.40;;;4.70;;
67274;SDS011;55463;52.324;5.122;2023-05-01T09:35:50;8.52;;;4.60;;
67274;SDS011;55463;52.324;5.122;2023-05-01T09:38:18;9.25;;;4.63;;
67274;SDS011;55463;52.324;5.122;2023-05-01T09:41:07;9.43;;;4.72;;
67274;SDS011;55463;52.324;5.122;2023-05-01T09:43:32;9.23;;;4.63;;
67274;SDS011;55463;52.324;5.122;2023-05-01T09:46:07;13.23;;;5.22;;
67274;SDS011;55463;52.324;5.122;2023-05-01T09:51:29;12.02;;;4.97;;
67274;SDS011;55463;52.324;5.122;2023-05-01T09:53:59;8.50;;;4.18;;
67274;SDS011;55463;52.324;5.122;2023-05-01T09:56:44;6.22;;;3.85;;
67274;SDS011;55463;52.324;5.122;2023-05-01T09:59:15;9.70;;;4.38;;
67274;SDS011;55463;52.324;5.122;2023-05-01T10:01:43;12.13;;;4.78;;
67274;SDS011;55463;52.324;5.122;2023-05-01T10:04:10;7.57;;;3.88;;
67274;SDS011;55463;52.324;5.122;2023-05-01T10:06:42;10.07;;;3.83;;
67274;SDS011;55463;52.324;5.122;2023-05-01T10:09:08;12.38;;;4.00;;
67274;SDS011;55463;52.324;5.122;2023-05-01T10:11:47;10.23;;;3.95;;
67274;SDS011;55463;52.324;5.122;2023-05-01T10:14:13;12.75;;;4.00;;
67274;SDS011;55463;52.324;5.122;2023-05-01T10:16:51;9.45;;;4.10;;
67274;SDS011;55463;52.324;5.122;2023-05-01T10:19:17;10.68;;;4.22;;
67274;SDS011;55463;52.324;5.122;2023-05-01T10:24:37;11.13;;;4.43;;
67274;SDS011;55463;52.324;5.122;2023-05-01T10:27:04;10.05;;;3.83;;
67274;SDS011;55463;52.324;5.122;2023-05-01T10:29:50;13.25;;;4.32;;
67274;SDS011;55463;52.324;5.122;2023-05-01T10:32:17;8.60;;;4.07;;
67274;SDS011;55463;52.324;5.122;2023-05-01T10:34:44;6.55;;;4.20;;
67274;SDS011;55463;52.324;5.122;2023-05-01T10:37:16;6.47;;;3.40;;
67274;SDS011;55463;52.324;5.122;2023-05-01T10:43:22;7.95;;;3.50;;
67274;SDS011;55463;52.324;5.122;2023-05-01T10:45:53;5.33;;;3.47;;
67274;SDS011;55463;52.324;5.122;2023-05-01T10:48:59;8.65;;;3.85;;
67274;SDS011;55463;52.324;5.122;2023-05-01T10:51:25;6.90;;;4.43;;
67274;SDS011;55463;52.324;5.122;2023-05-01T10:54:37;10.20;;;4.60;;
67274;SDS011;55463;52.324;5.122;2023-05-01T10:56:50;10.35;;;4.50;;
67274;SDS011;55463;52.324;5.122;2023-05-01T10:59:18;13.25;;;4.55;;
67274;SDS011;55463;52.324;5.122;2023-05-01T11:01:47;10.20;;;4.47;;
67274;SDS011;55463;52.324;5.122;2023-05-01T11:09:41;6.50;;;4.15;;
67274;SDS011;55463;52.324;5.122;2023-05-01T11:15:12;11.18;;;5.28;;
67274;SDS011;55463;52.324;5.122;2023-05-01T11:17:49;12.20;;;4.57;;
67274;SDS011;55463;52.324;5.122;2023-05-01T11:22:55;11.52;;;5.40;;
67274;SDS011;55463;52.324;5.122;2023-05-01T11:25:25;8.68;;;4.88;;
67274;SDS011;55463;52.324;5.122;2023-05-01T11:27:53;9.75;;;4.82;;
67274;SDS011;55463;52.324;5.122;2023-05-01T11:30:38;12.35;;;5.20;;
67274;SDS011;55463;52.324;5.122;2023-05-01T11:33:04;9.77;;;5.35;;
67274;SDS011;55463;52.324;5.122;2023-05-01T11:35:31;13.50;;;5.05;;
67274;SDS011;55463;52.324;5.122;2023-05-01T11:37:56;8.73;;;5.50;;
67274;SDS011;55463;52.324;5.122;2023-05-01T11:43:10;8.15;;;4.63;;
67274;SDS011;55463;52.324;5.122;2023-05-01T11:45:36;9.23;;;4.72;;
67274;SDS011;55463;52.324;5.122;2023-05-01T11:48:02;8.77;;;3.80;;
67274;SDS011;55463;52.324;5.122;2023-05-01T11:53:23;8.45;;;3.55;;
67274;SDS011;55463;52.324;5.122;2023-05-01T11:55:49;7.85;;;3.13;;
67274;SDS011;55463;52.324;5.122;2023-05-01T11:58:15;11.25;;;3.25;;
67274;SDS011;55463;52.324;5.122;2023-05-01T12:00:41;7.43;;;3.70;;
67274;SDS011;55463;52.324;5.122;2023-05-01T12:03:27;9.23;;;3.78;;
67274;SDS011;55463;52.324;5.122;2023-05-01T12:05:53;10.13;;;4.50;;
67274;SDS011;55463;52.324;5.122;2023-05-01T12:08:19;8.32;;;4.00;;
67274;SDS011;55463;52.324;5.122;2023-05-01T12:11:08;7.43;;;3.97;;
67274;SDS011;55463;52.324;5.122;2023-05-01T12:13:33;12.90;;;4.43;;
67274;SDS011;55463;52.324;5.122;2023-05-01T12:15:59;9.30;;;4.03;;
67274;SDS011;55463;52.324;5.122;2023-05-01T12:18:25;10.18;;;4.22;;
67274;SDS011;55463;52.324;5.122;2023-05-01T12:20:52;7.82;;;3.90;;
67274;SDS011;55463;52.324;5.122;2023-05-01T12:23:34;10.32;;;4.70;;
67274;SDS011;55463;52.324;5.122;2023-05-01T12:26:01;8.77;;;4.72;;
67274;SDS011;55463;52.324;5.122;2023-05-01T12:28:51;9.95;;;4.53;;
67274;SDS011;55463;52.324;5.122;2023-05-01T12:31:44;7.95;;;4.47;;
67274;SDS011;55463;52.324;5.122;2023-05-01T12:34:11;11.88;;;4.85;;
67274;SDS011;55463;52.324;5.122;2023-05-01T12:36:37;7.55;;;4.70;;
67274;SDS011;55463;52.324;5.122;2023-05-01T12:39:18;6.40;;;4.60;;
67274;SDS011;55463;52.324;5.122;2023-05-01T12:41:44;11.02;;;4.97;;
67274;SDS011;55463;52.324;5.122;2023-05-01T12:44:18;7.10;;;4.95;;
67274;SDS011;55463;52.324;5.122;2023-05-01T12:46:45;9.00;;;5.35;;
67274;SDS011;55463;52.324;5.122;2023-05-01T12:49:36;10.50;;;5.25;;
67274;SDS011;55463;52.324;5.122;2023-05-01T12:52:02;10.52;;;5.53;;
67274;SDS011;55463;52.324;5.122;2023-05-01T12:54:32;10.13;;;5.37;;
67274;SDS011;55463;52.324;5.122;2023-05-01T12:57:19;11.48;;;6.30;;
67274;SDS011;55463;52.324;5.122;2023-05-01T12:59:45;8.50;;;5.32;;
67274;SDS011;55463;52.324;5.122;2023-05-01T13:02:14;8.45;;;5.75;;
67274;SDS011;55463;52.324;5.122;2023-05-01T13:04:44;8.95;;;4.80;;
67274;SDS011;55463;52.324;5.122;2023-05-01T13:07:28;9.10;;;4.97;;
67274;SDS011;55463;52.324;5.122;2023-05-01T13:09:55;9.18;;;5.15;;
67274;SDS011;55463;52.324;5.122;2023-05-01T13:12:22;10.13;;;5.10;;
67274;SDS011;55463;52.324;5.122;2023-05-01T13:14:49;9.32;;;4.95;;
67274;SDS011;55463;52.324;5.122;2023-05-01T13:20:25;7.25;;;4.82;;
67274;SDS011;55463;52.324;5.122;2023-05-01T13:22:51;7.22;;;4.60;;
67274;SDS011;55463;52.324;5.122;2023-05-01T13:25:30;7.53;;;5.22;;
67274;SDS011;55463;52.324;5.122;2023-05-01T13:27:56;10.15;;;5.30;;
67274;SDS011;55463;52.324;5.122;2023-05-01T13:30:32;10.20;;;5.63;;
67274;SDS011;55463;52.324;5.122;2023-05-01T13:32:58;11.10;;;5.70;;
67274;SDS011;55463;52.324;5.122;2023-05-01T13:35:38;11.57;;;6.25;;
67274;SDS011;55463;52.324;5.122;2023-05-01T13:38:04;11.88;;;5.63;;
67274;SDS011;55463;52.324;5.122;2023-05-01T13:40:34;15.23;;;6.80;;
67274;SDS011;55463;52.324;5.122;2023-05-01T13:43:00;11.30;;;7.20;;
67274;SDS011;55463;52.324;5.122;2023-05-01T13:45:26;12.00;;;7.40;;
67274;SDS011;55463;52.324;5.122;2023-05-01T13:48:00;13.70;;;7.35;;
67274;SDS011;55463;52.324;5.122;2023-05-01T13:50:26;10.23;;;6.57;;
67274;SDS011;55463;52.324;5.122;2023-05-01T13:52:52;11.73;;;7.00;;
67274;SDS011;55463;52.324;5.122;2023-05-01T13:55:17;13.77;;;7.15;;
67274;SDS011;55463;52.324;5.122;2023-05-01T13:57:45;15.60;;;7.75;;
67274;SDS011;55463;52.324;5.122;2023-05-01T14:00:26;13.07;;;6.93;;
67274;SDS011;55463;52.324;5.122;2023-05-01T14:05:19;10.90;;;7.07;;
67274;SDS011;55463;52.324;5.122;2023-05-01T14:07:54;17.85;;;7.07;;
67274;SDS011;55463;52.324;5.122;2023-05-01T14:10:33;10.45;;;7.38;;
67274;SDS011;55463;52.324;5.122;2023-05-01T14:12:59;10.63;;;7.82;;
67274;SDS011;55463;52.324;5.122;2023-05-01T14:15:25;13.15;;;7.90;;
67274;SDS011;55463;52.324;5.122;2023-05-01T14:17:52;9.95;;;7.50;;
67274;SDS011;55463;52.324;5.122;2023-05-01T14:20:18;10.75;;;7.20;;
67274;SDS011;55463;52.324;5.122;2023-05-01T14:22:55;12.13;;;7.45;;
67274;SDS011;55463;52.324;5.122;2023-05-01T14:25:25;11.98;;;8.40;;
67274;SDS011;55463;52.324;5.122;2023-05-01T14:27:52;9.55;;;7.47;;
67274;SDS011;55463;52.324;5.122;2023-05-01T14:35:51;11.63;;;7.57;;
67274;SDS011;55463;52.324;5.122;2023-05-01T14:38:18;9.95;;;7.88;;
67274;SDS011;55463;52.324;5.122;2023-05-01T14:40:59;13.00;;;8.13;;
67274;SDS011;55463;52.324;5.122;2023-05-01T14:43:27;10.07;;;7.50;;
67274;SDS011;55463;52.324;5.122;2023-05-01T14:45:53;10.75;;;7.07;;
67274;SDS011;55463;52.324;5.122;2023-05-01T14:48:20;11.50;;;7.25;;
67274;SDS011;55463;52.324;5.122;2023-05-01T14:53:36;9.73;;;7.30;;
67274;SDS011;55463;52.324;5.122;2023-05-01T14:56:51;8.75;;;6.72;;
67274;SDS011;55463;52.324;5.122;2023-05-01T14:59:16;10.00;;;7.47;;
67274;SDS011;55463;52.324;5.122;2023-05-01T15:01:41;10.70;;;7.40;;
67274;SDS011;55463;52.324;5.122;2023-05-01T15:04:07;10.93;;;7.43;;
67274;SDS011;55463;52.324;5.122;2023-05-01T15:06:53;10.73;;;7.32;;
67274;SDS011;55463;52.324;5.122;2023-05-01T15:09:18;10.63;;;6.80;;
67274;SDS011;55463;52.324;5.122;2023-05-01T15:11:44;12.05;;;7.28;;
67274;SDS011;55463;52.324;5.122;2023-05-01T15:14:09;11.77;;;7.50;;
67274;SDS011;55463;52.324;5.122;2023-05-01T15:16:34;10.90;;;6.32;;
67274;SDS011;55463;52.324;5.122;2023-05-01T15:19:15;9.63;;;7.15;;
67274;SDS011;55463;52.324;5.122;2023-05-01T15:21:40;12.13;;;7.43;;
67274;SDS011;55463;52.324;5.122;2023-05-01T15:24:06;9.77;;;6.88;;
67274;SDS011;55463;52.324;5.122;2023-05-01T15:26:31;8.65;;;6.47;;
67274;SDS011;55463;52.324;5.122;2023-05-01T15:28:57;11.20;;;8.10;;
67274;SDS011;55463;52.324;5.122;2023-05-01T15:31:41;11.68;;;7.10;;
67274;SDS011;55463;52.324;5.122;2023-05-01T15:34:06;10.98;;;7.50;;
67274;SDS011;55463;52.324;5.122;2023-05-01T15:36:32;9.10;;;6.75;;
67274;SDS011;55463;52.324;5.122;2023-05-01T15:38:57;9.18;;;6.95;;
67274;SDS011;55463;52.324;5.122;2023-05-01T15:41:22;12.77;;;8.13;;
67274;SDS011;55463;52.324;5.122;2023-05-01T15:44:02;11.32;;;7.03;;
67274;SDS011;55463;52.324;5.122;2023-05-01T15:46:27;11.90;;;7.30;;
67274;SDS011;55463;52.324;5.122;2023-05-01T15:48:52;10.32;;;8.10;;